Paige, Texas
Current Conditions -  °F | °C
As of 12:35 AM on Monday 24 Nov 2014 (Local Time) from KGYB Reporting Station
Clear Clear  
Wind Chill: 56°   Ceiling: Unl
Heat Index: 56°   Visibility: 10mi
Dew Point: 41°   Wind: 12mph
Humidity: 57%   Direction: 350°N
Pressure: 29.88"   Gusts: 16mph
Location:  30.21°N, 97.12°W
Report Text: KGYB 240635Z AUTO 35010G14KT 10SM CLR 14/05 A2988 RMK AO2 T01350050
Loading
Personal Weather Stations






























Interactive Weather Map New forecast layout! Learn more

10-Day Weather Forecast

Advertisements
Track Severe Weather on mobile